Rifle, CO (81650)

12:52 AM MDT on March 26, 2017 (GMT -0600)
Cactus Valley, Greg and Nella | | Change Station

Elev 5449 ft 39.55 °N, 107.73 °W | Updated 7 seconds ago

Scattered Clouds
Scattered Clouds
39.7 °F
Feels Like 40 °F
N
3.0
Wind Variable Wind from NNE
Gusts 3.0 mph

Today
High -- | Low -- °F
--% Chance of Precip.
Yesterday
High -- | Low -- °F
Precip. -- in
Pressure 29.82 in
Visibility 10.0 miles
Clouds Few 6000 ft
Scattered Clouds 8000 ft
Windchill 40 °F
Dew Point 34 °F
Humidity 79%
Rainfall 0.00 in
Snow Depth Not available.
7:04 AM 7:29 PM
Waning Crescent, 4% visible
METAR KRIL 260553Z AUTO 29003KT 10SM FEW060 SCT080 05/02 A2990 RMK AO2 SLP096 T00500017 10144 20050 55004
Pressure 29.82 in
Visibility 10.0 miles
Clouds Few 6000 ft
Scattered Clouds 8000 ft
Windchill 40 °F
Dew Point 34 °F
Humidity 79%
Rainfall 0.00 in
Snow Depth Not available.
7:04 AM 7:29 PM
Waning Crescent, 4% visible
METAR KRIL 260553Z AUTO 29003KT 10SM FEW060 SCT080 05/02 A2990 RMK AO2 SLP096 T00500017 10144 20050 55004

Get Severe Weather Alerts

Thanks for signing up!

Be on the lookout for a verification email in your inbox.

You'll start receiving the daily forecast at 8 AM.

×

10-Day Weather Forecast

Almanac

Astronomy

Mar. 26, 2017 Rise Set
Actual Time
Civil Twilight
Nautical Twilight
Astronomical Twilight
Moon
Length of Visible Light
Length of Day
Tomorrow will be .
, % of the Moon is Illuminated

Today's Extremes

State Highs State Lows

Community

WunderPhotos

Upload Photos

1,962,540 photos uploaded!

WunderBlog® & News

Nearby

Air Quality

  Air Quality AQ Index Pollutant
Not available.

Snow Depth

Station Depth Elevation

Earthquake Activity

City Distance Mag. Time & Date
Minimum magnitude displayed is 2.5.

Earthquake Activity

City Distance Mag. Time & Date
Minimum magnitude displayed is 2.5.

Coastal Water Temperatures

Place Temperature

Stations

Nearby Weather Stations

Station Location Temp. Windchill Dew Point Humidity Wind Precip. Elev Updated Type
                   

Watches & Warnings

There are currently no watches in effect.